• Join FlightAware (Why Join?)
  • Login
  • US Flag 
04:18PM EST


 

Airport Tracker/Info


-or-


 

Live Flight TrackerFlight Track Log ✈ FIV617 ✈ 25-Jul-2013 ✈ KMGN - KTOL

Flight Track Log - Related Links

Times and Time Zones

All times are in EDT time to prevent confusion due to time zone crossing. See the FIV617 flight status page for this flight to view local times or setup timezone preferences in your user account.

Time Position Orientation Groundspeed Altitude Reporting Facility
EDT Latitude Longitude Course Direction KTS MPH feet Rate Location/Type
03:40PM 45.2981 -84.9350 172° South 251 289 10,900  Level Minneapolis Center
03:41PM 45.1956 -84.9158 172° South 318 366 14,400 3,216 Climbing Minneapolis Center
03:42PM 45.0861 -84.8925 171° South 380 437 17,600 3,097 Climbing Minneapolis Center
03:43PM 44.9700 -84.8714 173° South 394 453 20,800 2,806 Climbing Minneapolis Center
03:44PM 44.8647 -84.8508 172° South 400 460 23,400 2,371 Climbing Minneapolis Center
03:45PM 44.7494 -84.7978 162° South 429 494 25,700 2,323 Climbing Minneapolis Center
03:46PM 44.6081 -84.7350 162° South 441 507 28,200 1,597 Climbing Minneapolis Center
03:47PM 44.4858 -84.6853 164° South 451 519 29,000 387 Climbing Minneapolis Center
03:48PM 44.3531 -84.6656 174° South 471 542 29,000  Level Minneapolis Center
03:49PM 44.2211 -84.6458 174° South 476 548 29,000  Level Minneapolis Center
03:50PM 44.0919 -84.6269 174° South 471 542 29,000  Level Minneapolis Center
03:51PM 43.9622 -84.6092 174° South 467 537 29,000  Level Minneapolis Center
03:52PM 43.8339 -84.5897 174° South 464 534 29,000  Level Minneapolis Center
03:53PM 43.6828 -84.5694 174° South 460 529 29,000  Level Minneapolis Center
03:54PM 43.5519 -84.5508 174° South 464 534 29,000  Level Minneapolis Center
03:55PM 43.4189 -84.5325 174° South 474 545 29,000  Level Minneapolis Center
03:56PM 43.2872 -84.5125 174° South 476 548 29,000  Level Minneapolis Center
03:57PM 43.2044 -84.4997 174° South 476 548 29,000 -766 Level Cleveland Center
03:58PM 43.0800 -84.4806 174° South 464 534 27,800 -1,000 Descending Cleveland Center
03:59PM 42.9533 -84.4669 176° South 459 528 27,000 -400 Descending Cleveland Center
04:00PM 42.8353 -84.4453 172° South 454 522 27,000 -600 Level Cleveland Center
04:01PM 42.7336 -84.4336 175° South 449 517 25,800 -1,450 Descending Cleveland Center
04:02PM 42.5986 -84.4167 175° South 449 517 24,100 -1,850 Descending Cleveland Center
04:03PM 42.4742 -84.3981 174° South 449 517 22,100 -2,150 Descending Cleveland Center
04:04PM 42.3619 -84.3856 175° South 432 497 19,800 -2,100 Descending Cleveland Center
04:05PM 42.2500 -84.3675 173° South 421 484 17,900 -2,000 Descending Cleveland Center
04:06PM 42.1503 -84.3561 175° South 409 471 15,800 -2,750 Descending Cleveland Center
04:07PM 42.0422 -84.3383 173° South 385 443 12,400 -2,400 Descending Cleveland Center
04:08PM 41.9467 -84.3272 175° South 365 420 11,000 -700 Descending Cleveland Center
04:09PM 41.8514 -84.3133 174° South 360 414 11,000 -500 Level Cleveland Center
04:10PM 41.7750 -84.2197 138° Southeast 334 384 10,000 -1,350 Descending Cleveland Center
04:11PM 41.7342 -84.1311 122° Southeast 294 338 8,300 -1,850 Descending Cleveland Center
04:12PM 41.6928 -84.0456 123° Southeast 281 323 6,300 -1,700 Descending Cleveland Center
04:13PM 41.6536 -83.9683 124° Southeast 265 305 4,900 -1,400 Descending Cleveland Center
04:14PM 41.6267 -83.8919 115° Southeast 245 282 3,500 -1,300 Descending Cleveland Center
04:15PM 41.6247 -83.8139 92° East 214 246 2,300 -800 Descending Cleveland Center
04:16PM 41.6219 -83.7611 94° East 181 208 1,900 -300 Descending Cleveland Center
04:17PM 41.6042 -83.7269 125° Southeast 135 155 1,700 -200 Descending Cleveland Center